Bedford Park, Illinois
Current Conditions -  °F | °C
As of 8:53 PM on Monday 22 Dec 2014 (Local Time) from KMDW Reporting Station
Drizzle Drizzle  
Wind Chill: 35°   Ceiling: 1100
Heat Index: 43°   Visibility: 5mi
Dew Point: 40°   Wind: 16mph
Humidity: 89%   Direction: 130°SE
Pressure: 29.65"   Gusts: 25mph
Location:  41.76°N, 87.8°W
Report Text: KMDW 230253Z 13014G22KT 5SM -DZ BR OVC011 06/04 A2965 RMK AO2 RAE50DZB50 SLP046 P0000 60004 T00610044 56012
Loading
Personal Weather Stations






























Interactive Weather Map New forecast layout! Learn more

10-Day Weather Forecast

Advertisements
Track Severe Weather on mobile